createdAt,value
2023-03-26T00:01:39.664Z,3.53
2023-03-26T00:04:07.551Z,2.65
2023-03-26T00:06:39.550Z,3.50
2023-03-26T00:09:13.711Z,5.63
2023-03-26T00:11:41.986Z,5.32
2023-03-26T00:14:14.134Z,2.38
2023-03-26T00:16:42.987Z,2.05
2023-03-26T00:19:11.068Z,2.42
2023-03-26T00:21:38.429Z,2.65
2023-03-26T00:24:09.686Z,2.50
2023-03-26T00:26:39.109Z,2.47
2023-03-26T00:29:07.131Z,3.30
2023-03-26T00:31:35.190Z,8.40
2023-03-26T00:34:04.030Z,10.52
2023-03-26T00:36:31.489Z,4.70
2023-03-26T00:38:58.894Z,4.40
2023-03-26T00:41:27.212Z,3.50
2023-03-26T00:43:56.859Z,5.18
2023-03-26T00:46:26.727Z,6.15
2023-03-26T00:48:54.552Z,9.57
2023-03-26T00:51:22.288Z,7.50
2023-03-26T00:53:50.957Z,9.80
2023-03-26T00:56:19.446Z,7.45
2023-03-26T00:58:48.225Z,7.97
2023-03-26T01:01:20.989Z,8.60
2023-03-26T01:04:04.844Z,5.80
2023-03-26T01:06:36.590Z,4.68
2023-03-26T01:09:16.048Z,4.88
2023-03-26T01:11:44.499Z,5.47
2023-03-26T01:14:16.936Z,4.80
2023-03-26T01:16:50.140Z,5.90
2023-03-26T01:21:55.940Z,8.32
2023-03-26T01:24:23.229Z,5.18
2023-03-26T01:27:30.184Z,5.72
2023-03-26T01:30:37.685Z,4.75
2023-03-26T01:33:14.471Z,4.82
2023-03-26T01:46:15.764Z,5.70
2023-03-26T01:48:45.887Z,8.07
2023-03-26T01:51:15.347Z,4.75
2023-03-26T01:53:45.310Z,8.15
2023-03-26T01:56:52.238Z,5.10
2023-03-26T01:59:52.143Z,10.00
2023-03-26T02:05:13.081Z,5.65
2023-03-26T02:10:21.879Z,11.90
2023-03-26T02:12:49.509Z,9.43
2023-03-26T02:15:17.527Z,6.97
2023-03-26T02:17:44.801Z,6.88
2023-03-26T02:20:14.541Z,10.55
2023-03-26T02:22:46.216Z,7.47
2023-03-26T02:25:18.729Z,5.40
2023-03-26T02:27:47.845Z,8.00
2023-03-26T02:30:20.842Z,8.60
2023-03-26T02:32:52.519Z,5.18
2023-03-26T02:35:22.259Z,4.50
2023-03-26T02:37:53.996Z,5.10
2023-03-26T02:40:23.303Z,10.98
2023-03-26T02:42:51.846Z,5.85
2023-03-26T02:45:19.238Z,7.30
2023-03-26T02:48:06.566Z,5.22
2023-03-26T02:50:54.930Z,7.43
2023-03-26T02:53:37.733Z,10.90
2023-03-26T02:56:20.211Z,12.43
2023-03-26T02:59:00.579Z,13.32
2023-03-26T03:01:31.107Z,18.17
2023-03-26T03:03:58.667Z,12.35
2023-03-26T03:06:35.363Z,12.25
2023-03-26T03:09:03.038Z,10.55
2023-03-26T03:11:50.913Z,10.73
2023-03-26T03:14:19.035Z,12.32
2023-03-26T03:16:46.520Z,14.23
2023-03-26T03:19:14.097Z,17.55
2023-03-26T03:21:42.113Z,16.65
2023-03-26T03:24:11.820Z,11.70
2023-03-26T03:26:46.432Z,13.52
2023-03-26T03:29:26.706Z,13.45
2023-03-26T03:31:55.765Z,15.18
2023-03-26T03:34:38.861Z,15.00
2023-03-26T03:37:07.759Z,11.73
2023-03-26T03:39:45.073Z,20.85
2023-03-26T03:42:15.870Z,16.15
2023-03-26T03:44:43.200Z,21.52
2023-03-26T03:47:25.063Z,16.40
2023-03-26T03:49:52.337Z,11.88
2023-03-26T03:52:19.805Z,7.78
2023-03-26T03:54:47.358Z,7.45
2023-03-26T03:57:33.464Z,16.50
2023-03-26T04:00:08.297Z,11.27
2023-03-26T04:02:54.687Z,10.55
2023-03-26T04:05:23.786Z,15.30
2023-03-26T04:07:51.879Z,9.93
2023-03-26T04:10:37.665Z,6.50
2023-03-26T04:13:23.435Z,9.23
2023-03-26T04:16:11.513Z,9.13
2023-03-26T04:18:39.402Z,10.00
2023-03-26T04:21:16.082Z,7.03
2023-03-26T04:23:45.918Z,5.90
2023-03-26T04:26:23.840Z,5.05
2023-03-26T04:29:17.170Z,5.05
2023-03-26T04:31:47.299Z,4.70
2023-03-26T04:34:25.374Z,3.97
2023-03-26T04:37:02.584Z,4.88
2023-03-26T04:39:34.385Z,4.78
2023-03-26T04:42:21.773Z,5.25
2023-03-26T04:45:11.203Z,8.05
2023-03-26T04:47:40.479Z,5.53
2023-03-26T04:50:10.540Z,5.88
2023-03-26T04:52:39.494Z,4.63
2023-03-26T04:55:31.922Z,7.22
2023-03-26T04:58:07.020Z,7.07
2023-03-26T05:00:54.181Z,8.98
2023-03-26T05:03:21.892Z,7.53
2023-03-26T05:05:50.001Z,7.18
2023-03-26T05:08:17.345Z,4.30
2023-03-26T05:10:44.721Z,3.50
2023-03-26T05:13:16.715Z,7.63
2023-03-26T05:15:49.616Z,3.83
2023-03-26T05:18:32.534Z,7.20
2023-03-26T05:21:01.380Z,9.32
2023-03-26T05:23:29.480Z,6.18
2023-03-26T05:26:11.005Z,4.32
2023-03-26T05:28:38.314Z,4.20
2023-03-26T05:31:17.106Z,4.07
2023-03-26T05:36:16.053Z,4.30
2023-03-26T05:38:50.118Z,5.57
2023-03-26T05:41:37.301Z,9.77
2023-03-26T05:44:05.199Z,8.38
2023-03-26T05:46:32.789Z,5.05
2023-03-26T05:49:00.673Z,4.28
2023-03-26T05:51:32.213Z,4.53
2023-03-26T05:54:17.368Z,4.10
2023-03-26T05:57:04.519Z,5.22
2023-03-26T05:59:51.670Z,7.25
2023-03-26T06:02:39.321Z,8.48
2023-03-26T06:05:23.476Z,11.05
2023-03-26T06:08:02.961Z,7.22
2023-03-26T06:10:39.275Z,8.25
2023-03-26T06:13:06.781Z,8.07
2023-03-26T06:15:37.526Z,7.47
2023-03-26T06:18:15.281Z,11.55
2023-03-26T06:21:03.059Z,8.90
2023-03-26T06:23:41.464Z,8.98
2023-03-26T06:26:15.746Z,7.72
2023-03-26T06:28:53.029Z,9.18
2023-03-26T06:31:34.360Z,10.18
2023-03-26T06:34:21.290Z,8.35
2023-03-26T06:36:49.054Z,9.68
2023-03-26T06:39:16.489Z,8.48
2023-03-26T06:41:52.805Z,8.70
2023-03-26T06:44:35.314Z,8.38
2023-03-26T06:47:22.419Z,8.10
2023-03-26T06:50:01.610Z,9.48
2023-03-26T06:52:48.701Z,8.25
2023-03-26T06:55:35.890Z,7.47
2023-03-26T06:58:10.486Z,8.65
2023-03-26T07:00:57.870Z,6.90
2023-03-26T07:03:45.187Z,7.53
2023-03-26T07:06:32.671Z,8.52
2023-03-26T07:09:19.745Z,9.40
2023-03-26T07:12:07.166Z,9.10
2023-03-26T07:14:54.344Z,10.10
2023-03-26T07:17:41.480Z,9.68
2023-03-26T07:20:16.383Z,9.93
2023-03-26T07:22:45.902Z,9.65
2023-03-26T07:25:18.154Z,9.82
2023-03-26T07:30:53.757Z,9.65
2023-03-26T07:34:02.457Z,10.13
2023-03-26T07:36:48.609Z,10.23
2023-03-26T07:39:43.299Z,10.05
2023-03-26T07:47:49.734Z,12.15
2023-03-26T07:50:25.188Z,12.68
2023-03-26T07:53:05.799Z,15.73
2023-03-26T07:55:53.791Z,26.15
2023-03-26T07:59:07.302Z,33.03
2023-03-26T08:07:32.646Z,20.23
2023-03-26T08:16:00.982Z,26.57
2023-03-26T08:18:56.903Z,18.35
2023-03-26T08:21:27.476Z,15.60
2023-03-26T08:29:58.385Z,15.98
2023-03-26T08:32:26.061Z,16.25
2023-03-26T08:34:53.405Z,16.17
2023-03-26T08:37:20.868Z,16.00
2023-03-26T08:39:48.131Z,15.63
2023-03-26T08:59:44.805Z,18.67
2023-03-26T09:05:46.861Z,18.20
2023-03-26T09:14:25.086Z,18.83
2023-03-26T09:20:09.326Z,17.42
2023-03-26T09:22:56.233Z,17.80
2023-03-26T09:25:52.168Z,16.95
2023-03-26T09:31:59.979Z,15.38
2023-03-26T09:34:30.874Z,18.45
2023-03-26T09:40:03.368Z,25.33
2023-03-26T09:48:36.177Z,18.27
2023-03-26T09:54:44.850Z,18.27
2023-03-26T10:16:56.718Z,18.45
2023-03-26T10:33:12.621Z,17.23
2023-03-26T10:39:09.622Z,19.00
2023-03-26T10:49:50.107Z,18.15
2023-03-26T10:52:35.507Z,17.55
2023-03-26T10:55:12.292Z,18.80
2023-03-26T11:00:25.601Z,19.58
2023-03-26T11:08:31.422Z,21.67
2023-03-26T11:14:34.521Z,18.25
2023-03-26T11:17:41.587Z,16.92
2023-03-26T11:23:11.100Z,17.13
2023-03-26T11:25:55.989Z,17.50
2023-03-26T11:33:47.463Z,17.27
2023-03-26T11:36:21.113Z,17.65
2023-03-26T11:38:50.791Z,15.70
2023-03-26T11:41:26.805Z,15.80
2023-03-26T11:44:13.384Z,15.90
2023-03-26T11:46:44.798Z,17.40
2023-03-26T11:49:13.841Z,16.52
2023-03-26T11:51:42.172Z,16.08
2023-03-26T11:54:21.228Z,15.63
2023-03-26T11:57:05.267Z,16.15
2023-03-26T12:04:55.536Z,15.88
2023-03-26T12:07:34.607Z,14.70
2023-03-26T12:10:15.456Z,15.60
2023-03-26T12:12:50.664Z,14.95
2023-03-26T12:15:20.101Z,14.63
2023-03-26T12:17:51.646Z,14.48
2023-03-26T12:23:06.764Z,13.10
2023-03-26T12:25:38.935Z,14.40
2023-03-26T12:28:18.356Z,14.38
2023-03-26T12:30:59.141Z,16.42
2023-03-26T12:33:30.077Z,14.63
2023-03-26T12:36:00.805Z,14.85
2023-03-26T12:47:54.819Z,15.57
2023-03-26T12:49:15.849Z,14.57
2023-03-26T13:12:07.226Z,13.13
2023-03-26T13:15:14.652Z,13.35
2023-03-26T13:18:08.679Z,12.45
2023-03-26T13:20:59.524Z,11.68
2023-03-26T13:23:38.018Z,13.05
2023-03-26T13:32:30.605Z,12.32
2023-03-26T13:35:24.629Z,12.23
2023-03-26T13:37:59.803Z,13.35
2023-03-26T13:48:39.593Z,19.80
2023-03-26T13:51:21.568Z,13.85
2023-03-26T13:53:55.523Z,14.50
2023-03-26T13:56:29.608Z,12.63
2023-03-26T13:59:06.770Z,12.50
2023-03-26T14:01:44.049Z,13.88
2023-03-26T14:07:19.340Z,15.68
2023-03-26T14:09:52.772Z,14.27
2023-03-26T14:12:49.128Z,14.40
2023-03-26T14:18:28.863Z,13.65
2023-03-26T14:21:35.933Z,13.38
2023-03-26T14:35:12.783Z,14.18
2023-03-26T14:38:06.409Z,12.35
2023-03-26T14:53:52.459Z,12.85
2023-03-26T15:02:52.812Z,10.25
2023-03-26T15:08:59.182Z,13.05
2023-03-26T15:11:33.094Z,12.27
2023-03-26T15:14:11.461Z,11.38
2023-03-26T15:28:08.566Z,12.38
2023-03-26T15:37:01.879Z,12.10
2023-03-26T15:42:26.062Z,11.07
2023-03-26T15:44:58.040Z,11.35
2023-03-26T15:58:38.484Z,12.10
2023-03-26T16:06:53.246Z,11.02
2023-03-26T16:15:21.434Z,11.48
2023-03-26T16:21:31.209Z,10.80
2023-03-26T16:29:22.683Z,12.13
2023-03-26T16:32:11.501Z,10.90
2023-03-26T16:34:45.318Z,10.25
2023-03-26T16:48:41.745Z,12.90
2023-03-26T16:51:23.037Z,10.98
2023-03-26T17:02:29.143Z,10.13
2023-03-26T17:05:09.671Z,9.25
2023-03-26T17:07:47.275Z,9.95
2023-03-26T17:10:26.230Z,9.43
2023-03-26T17:16:20.161Z,14.90
2023-03-26T17:32:55.846Z,8.23
2023-03-26T17:35:46.369Z,7.68
2023-03-26T17:43:43.135Z,9.30
2023-03-26T17:46:26.019Z,8.10
2023-03-26T17:49:00.139Z,7.70
2023-03-26T17:54:14.761Z,7.57
2023-03-26T17:56:42.593Z,8.00
2023-03-26T17:59:17.985Z,7.07
2023-03-26T18:01:48.483Z,8.30
2023-03-26T18:04:20.076Z,7.20
2023-03-26T18:16:02.581Z,7.63
2023-03-26T18:21:28.873Z,6.63
2023-03-26T18:23:59.664Z,8.18
2023-03-26T18:26:46.182Z,7.53
2023-03-26T18:31:54.818Z,8.35
2023-03-26T18:34:22.553Z,7.50
2023-03-26T18:40:12.793Z,6.90
2023-03-26T18:42:42.438Z,7.00
2023-03-26T18:47:57.708Z,8.23
2023-03-26T18:50:29.568Z,7.35
2023-03-26T18:55:28.889Z,7.28
2023-03-26T18:57:57.346Z,7.95
2023-03-26T19:00:28.059Z,7.25
2023-03-26T19:03:03.914Z,8.95
2023-03-26T19:05:33.582Z,7.97
2023-03-26T19:08:03.793Z,8.45
2023-03-26T19:10:33.396Z,8.15
2023-03-26T19:13:02.654Z,8.13
2023-03-26T19:15:32.143Z,7.63
2023-03-26T19:18:07.648Z,8.00
2023-03-26T19:20:41.568Z,8.15
2023-03-26T19:23:14.157Z,7.70
2023-03-26T19:25:47.729Z,7.90
2023-03-26T19:28:23.095Z,8.00
2023-03-26T19:31:12.602Z,7.68
2023-03-26T19:33:42.070Z,6.88
2023-03-26T19:36:18.559Z,7.68
2023-03-26T19:41:36.803Z,6.78
2023-03-26T19:47:17.358Z,6.53
2023-03-26T19:52:28.765Z,7.13
2023-03-26T19:55:02.129Z,7.32
2023-03-26T19:57:33.003Z,7.30
2023-03-26T20:00:00.437Z,6.85
2023-03-26T20:02:27.925Z,7.72
2023-03-26T20:04:55.284Z,7.00
2023-03-26T20:07:35.652Z,7.55
2023-03-26T20:10:05.889Z,6.72
2023-03-26T20:12:33.534Z,6.38
2023-03-26T20:15:02.187Z,7.28
2023-03-26T20:17:31.159Z,6.35
2023-03-26T20:19:58.512Z,5.82
2023-03-26T20:22:26.933Z,6.88
2023-03-26T20:24:54.970Z,6.38
2023-03-26T20:27:22.566Z,6.45
2023-03-26T20:29:49.843Z,6.35
2023-03-26T20:32:20.641Z,5.93
2023-03-26T20:34:49.508Z,6.18
2023-03-26T20:37:17.880Z,5.95
2023-03-26T20:39:46.015Z,6.47
2023-03-26T20:42:15.418Z,6.13
2023-03-26T20:44:43.411Z,6.15
2023-03-26T20:47:11.735Z,6.00
2023-03-26T20:49:39.256Z,6.32
2023-03-26T20:52:06.689Z,6.93
2023-03-26T20:54:34.011Z,6.03
2023-03-26T20:57:02.555Z,6.75
2023-03-26T20:59:30.408Z,6.38
2023-03-26T21:01:59.553Z,5.53
2023-03-26T21:04:27.609Z,6.07
2023-03-26T21:07:03.179Z,5.93
2023-03-26T21:09:34.525Z,6.05
2023-03-26T21:12:07.756Z,6.10
2023-03-26T21:14:41.575Z,6.05
2023-03-26T21:17:18.282Z,5.60
2023-03-26T21:19:46.284Z,6.20
2023-03-26T21:22:36.573Z,5.68
2023-03-26T21:25:17.557Z,5.40
2023-03-26T21:30:37.636Z,6.60
2023-03-26T21:33:05.618Z,5.00
2023-03-26T21:35:34.959Z,6.07
2023-03-26T21:38:04.718Z,5.70
2023-03-26T21:40:32.231Z,5.90
2023-03-26T21:42:59.827Z,5.63
2023-03-26T21:45:28.050Z,5.70
2023-03-26T21:47:55.707Z,5.60
2023-03-26T21:50:24.231Z,5.18
2023-03-26T21:52:52.336Z,5.90
2023-03-26T21:55:21.976Z,5.47
2023-03-26T22:00:46.007Z,6.30
2023-03-26T22:06:04.325Z,6.10
2023-03-26T22:08:36.047Z,5.72
2023-03-26T22:13:31.238Z,5.80
2023-03-26T22:15:58.639Z,5.78
2023-03-26T22:18:26.222Z,5.80
2023-03-26T22:20:54.664Z,4.72
2023-03-26T22:23:22.525Z,5.60
2023-03-26T22:25:50.134Z,5.20
2023-03-26T22:28:17.468Z,5.07
2023-03-26T22:30:44.805Z,6.25
2023-03-26T22:33:12.405Z,5.82
2023-03-26T22:35:42.786Z,5.82
2023-03-26T22:38:11.873Z,4.97
2023-03-26T22:40:39.353Z,5.00
2023-03-26T22:43:06.630Z,6.57
2023-03-26T22:45:33.896Z,5.90
2023-03-26T22:48:04.636Z,5.10
2023-03-26T22:50:33.079Z,5.35
2023-03-26T22:53:00.743Z,5.38
2023-03-26T22:55:29.726Z,6.10
2023-03-26T22:57:57.548Z,4.65
2023-03-26T23:00:26.672Z,5.85
2023-03-26T23:02:56.105Z,5.93
2023-03-26T23:05:23.845Z,6.32
2023-03-26T23:07:52.161Z,6.55
2023-03-26T23:10:19.535Z,9.57
2023-03-26T23:12:46.843Z,8.93
2023-03-26T23:15:14.328Z,10.82
2023-03-26T23:17:41.689Z,10.15
2023-03-26T23:20:15.110Z,11.98
2023-03-26T23:22:43.308Z,13.27
2023-03-26T23:25:12.113Z,15.07
2023-03-26T23:27:41.571Z,14.10
2023-03-26T23:30:11.048Z,11.82
2023-03-26T23:32:38.553Z,10.68
2023-03-26T23:35:06.326Z,11.30
2023-03-26T23:37:35.387Z,11.70
2023-03-26T23:40:07.576Z,11.48
2023-03-26T23:42:34.878Z,10.07
2023-03-26T23:45:02.223Z,12.45
2023-03-26T23:47:34.963Z,11.65
2023-03-26T23:50:03.592Z,9.75
2023-03-26T23:52:31.540Z,10.07
2023-03-26T23:55:02.221Z,8.65
2023-03-26T23:57:30.797Z,9.70
2023-03-26T23:59:58.557Z,9.70
